TAP225 LPLA-LPPT
Flight info
| Callsign | TAP225 |
|---|---|
| Flight time | 2h 3m |
| Altitude | 35000 |
| Route | M079F350 REGLA1B REGLA DCT BAVAS DCT LENSI T25 GUNTI/N0454F350 DCT LAZET LAZET2B |
| Aircraft | A333/H-SDE3GHIJ2J3J5M1RVWXY/LB2D1 |
Departure
| Time | 2026-04-23 19:06 |
|---|---|
| Airport | Lajes Airport (LPLA) |
Arrival
| Time | 2026-04-23 21:09 |
|---|---|
| Airport | Lisbon Humberto Delgado Airport (LPPT) |
| Time | Latitude | Longitude | Altitude | Speed | Heading |
|---|---|---|---|---|---|
| 2026-04-23 18:53 | 38.75681 | -27.08887 | 206 ft | 0 kts | 141° |
| 2026-04-23 19:03 | 38.75668 | -27.08868 | 206 ft | 6 kts | 122° |
| 2026-04-23 19:03 | 38.75654 | -27.08797 | 206 ft | 9 kts | 109° |
| 2026-04-23 19:03 | 38.75607 | -27.08722 | 205 ft | 11 kts | 140° |
| 2026-04-23 19:03 | 38.75544 | -27.08657 | 205 ft | 12 kts | 141° |
| 2026-04-23 19:04 | 38.75474 | -27.08577 | 206 ft | 13 kts | 119° |
| 2026-04-23 19:04 | 38.75502 | -27.08464 | 202 ft | 15 kts | 51° |
| 2026-04-23 19:04 | 38.75549 | -27.08413 | 200 ft | 5 kts | 337° |
| 2026-04-23 19:04 | 38.75557 | -27.08422 | 200 ft | 0 kts | 319° |
| 2026-04-23 19:05 | 38.75563 | -27.08428 | 200 ft | 8 kts | 319° |
| 2026-04-23 19:05 | 38.75803 | -27.08683 | 201 ft | 81 kts | 320° |
| 2026-04-23 19:05 | 38.76435 | -27.09341 | 186 ft | 149 kts | 320° |
| 2026-04-23 19:06 | 38.77337 | -27.10241 | 562 ft | 173 kts | 319° |
| 2026-04-23 19:06 | 38.78318 | -27.11165 | 1297 ft | 180 kts | 319° |
| 2026-04-23 19:06 | 38.79348 | -27.12086 | 2118 ft | 187 kts | 320° |
| 2026-04-23 19:06 | 38.80555 | -27.12795 | 2886 ft | 209 kts | 344° |
| 2026-04-23 19:07 | 38.82072 | -27.12670 | 3781 ft | 233 kts | 13° |
| 2026-04-23 19:07 | 38.83478 | -27.11582 | 4807 ft | 248 kts | 41° |
| 2026-04-23 19:07 | 38.84432 | -27.09767 | 5848 ft | 256 kts | 68° |
| 2026-04-23 19:07 | 38.84676 | -27.07555 | 6941 ft | 254 kts | 99° |
| 2026-04-23 19:08 | 38.84129 | -27.05420 | 7534 ft | 258 kts | 118° |
| 2026-04-23 19:08 | 38.83322 | -27.03302 | 7775 ft | 275 kts | 117° |
| 2026-04-23 19:08 | 38.82459 | -27.01019 | 8002 ft | 292 kts | 117° |
| 2026-04-23 19:08 | 38.81565 | -26.98591 | 8232 ft | 309 kts | 111° |
| 2026-04-23 19:09 | 38.81187 | -26.95844 | 8454 ft | 327 kts | 89° |
| 2026-04-23 19:09 | 38.81280 | -26.92865 | 8703 ft | 344 kts | 86° |
| 2026-04-23 19:09 | 38.81440 | -26.89709 | 8945 ft | 361 kts | 85° |
| 2026-04-23 19:09 | 38.81619 | -26.86489 | 9449 ft | 369 kts | 84° |
| 2026-04-23 19:10 | 38.81805 | -26.83223 | 10037 ft | 373 kts | 84° |
| 2026-04-23 19:10 | 38.81993 | -26.79895 | 10694 ft | 375 kts | 84° |
| 2026-04-23 19:10 | 38.82182 | -26.76526 | 11299 ft | 379 kts | 84° |
| 2026-04-23 19:10 | 38.82369 | -26.73179 | 11826 ft | 384 kts | 83° |
| 2026-04-23 19:11 | 38.82560 | -26.69767 | 12411 ft | 387 kts | 83° |
| 2026-04-23 19:11 | 38.82751 | -26.66308 | 12929 ft | 391 kts | 83° |
| 2026-04-23 19:11 | 38.82943 | -26.62826 | 13418 ft | 395 kts | 83° |
| 2026-04-23 19:11 | 38.83137 | -26.59287 | 13964 ft | 397 kts | 83° |
| 2026-04-23 19:12 | 38.83266 | -26.56933 | 14308 ft | 399 kts | 83° |
| 2026-04-23 19:12 | 38.83522 | -26.52212 | 14899 ft | 406 kts | 83° |
| 2026-04-23 19:12 | 38.83721 | -26.48521 | 15078 ft | 418 kts | 83° |
| 2026-04-23 19:12 | 38.83917 | -26.44844 | 15520 ft | 421 kts | 83° |
| 2026-04-23 19:13 | 38.84117 | -26.41071 | 16038 ft | 423 kts | 83° |
| 2026-04-23 19:13 | 38.84316 | -26.37335 | 16417 ft | 428 kts | 83° |
| 2026-04-23 19:13 | 38.84515 | -26.33532 | 16878 ft | 430 kts | 83° |
| 2026-04-23 19:13 | 38.84716 | -26.29698 | 17251 ft | 434 kts | 83° |
| 2026-04-23 19:14 | 38.84916 | -26.25838 | 17644 ft | 437 kts | 83° |
| 2026-04-23 19:14 | 38.85116 | -26.21954 | 18055 ft | 440 kts | 83° |
| 2026-04-23 19:14 | 38.85317 | -26.18028 | 18451 ft | 442 kts | 83° |
| 2026-04-23 19:14 | 38.85517 | -26.14107 | 18807 ft | 446 kts | 82° |
| 2026-04-23 19:15 | 38.85785 | -26.10149 | 19188 ft | 448 kts | 81° |
| 2026-04-23 19:15 | 38.86062 | -26.06167 | 19578 ft | 450 kts | 81° |
| 2026-04-23 19:15 | 38.86339 | -26.02146 | 19905 ft | 454 kts | 81° |
| 2026-04-23 19:15 | 38.86612 | -25.98132 | 20310 ft | 455 kts | 81° |
| 2026-04-23 19:16 | 38.86889 | -25.94065 | 20634 ft | 459 kts | 81° |
| 2026-04-23 19:16 | 38.87163 | -25.90005 | 20954 ft | 462 kts | 81° |
| 2026-04-23 19:16 | 38.87438 | -25.85922 | 21269 ft | 465 kts | 81° |
| 2026-04-23 19:17 | 38.87991 | -25.77609 | 21962 ft | 469 kts | 81° |
| 2026-04-23 19:17 | 38.88266 | -25.73469 | 22231 ft | 472 kts | 81° |
| 2026-04-23 19:17 | 38.88543 | -25.69235 | 22587 ft | 474 kts | 81° |
| 2026-04-23 19:17 | 38.88817 | -25.65063 | 22914 ft | 476 kts | 81° |
| 2026-04-23 19:18 | 38.89091 | -25.60841 | 23200 ft | 479 kts | 81° |
| 2026-04-23 19:18 | 38.89368 | -25.56548 | 23522 ft | 480 kts | 81° |
| 2026-04-23 19:18 | 38.89640 | -25.52324 | 23820 ft | 483 kts | 81° |
| 2026-04-23 19:18 | 38.89916 | -25.48017 | 24060 ft | 486 kts | 81° |
| 2026-04-23 19:19 | 38.90466 | -25.39340 | 24570 ft | 492 kts | 81° |
| 2026-04-23 19:19 | 38.90741 | -25.34954 | 24913 ft | 493 kts | 81° |
| 2026-04-23 19:20 | 38.91289 | -25.26137 | 25392 ft | 499 kts | 81° |
| 2026-04-23 19:20 | 38.91563 | -25.21701 | 25619 ft | 502 kts | 81° |
| 2026-04-23 19:20 | 38.91837 | -25.17222 | 25835 ft | 505 kts | 81° |
| 2026-04-23 19:20 | 38.92106 | -25.12793 | 26135 ft | 507 kts | 81° |
| 2026-04-23 19:21 | 38.92383 | -25.08235 | 26366 ft | 509 kts | 81° |
| 2026-04-23 19:21 | 38.92924 | -24.99204 | 26834 ft | 514 kts | 81° |
| 2026-04-23 19:21 | 38.93199 | -24.94578 | 27041 ft | 517 kts | 80° |
| 2026-04-23 19:22 | 38.93468 | -24.90003 | 27297 ft | 519 kts | 80° |
| 2026-04-23 19:22 | 38.93736 | -24.85427 | 27492 ft | 522 kts | 80° |
| 2026-04-23 19:22 | 38.94274 | -24.76118 | 27965 ft | 525 kts | 80° |
| 2026-04-23 19:23 | 38.94542 | -24.71474 | 28140 ft | 528 kts | 80° |
| 2026-04-23 19:23 | 38.94810 | -24.66774 | 28338 ft | 530 kts | 80° |
| 2026-04-23 19:23 | 38.95076 | -24.62015 | 28561 ft | 532 kts | 79° |
| 2026-04-23 19:24 | 38.95605 | -24.52579 | 28978 ft | 535 kts | 79° |
| 2026-04-23 19:24 | 38.95869 | -24.47830 | 29121 ft | 537 kts | 79° |
| 2026-04-23 19:24 | 38.96392 | -24.38253 | 29485 ft | 540 kts | 79° |
| 2026-04-23 19:25 | 38.96911 | -24.28626 | 29791 ft | 543 kts | 79° |
| 2026-04-23 19:25 | 38.97425 | -24.18952 | 30131 ft | 544 kts | 79° |
| 2026-04-23 19:26 | 38.97930 | -24.09251 | 30400 ft | 546 kts | 79° |
| 2026-04-23 19:26 | 38.98180 | -24.04403 | 30539 ft | 547 kts | 79° |
| 2026-04-23 19:27 | 38.98679 | -23.94644 | 30827 ft | 547 kts | 79° |
| 2026-04-23 19:27 | 38.99405 | -23.80089 | 31251 ft | 547 kts | 79° |
| 2026-04-23 19:28 | 38.99880 | -23.70329 | 31512 ft | 547 kts | 79° |
| 2026-04-23 19:28 | 39.00115 | -23.60631 | 31931 ft | 547 kts | 82° |
| 2026-04-23 19:29 | 39.00184 | -23.55755 | 32047 ft | 548 kts | 82° |
| 2026-04-23 19:29 | 39.00323 | -23.45971 | 32321 ft | 547 kts | 82° |
| 2026-04-23 19:30 | 39.00454 | -23.36216 | 32598 ft | 547 kts | 82° |
| 2026-04-23 19:30 | 39.00515 | -23.31393 | 32715 ft | 547 kts | 82° |
| 2026-04-23 19:30 | 39.00635 | -23.21643 | 32949 ft | 546 kts | 82° |
| 2026-04-23 19:31 | 39.00691 | -23.16750 | 33057 ft | 546 kts | 82° |
| 2026-04-23 19:31 | 39.00745 | -23.11897 | 33179 ft | 545 kts | 82° |
| 2026-04-23 19:31 | 39.00795 | -23.07104 | 33299 ft | 544 kts | 82° |
| 2026-04-23 19:31 | 39.00847 | -23.02270 | 33411 ft | 544 kts | 82° |
| 2026-04-23 19:32 | 39.00894 | -22.97401 | 33529 ft | 543 kts | 82° |
| 2026-04-23 19:32 | 39.00941 | -22.92561 | 33654 ft | 542 kts | 82° |
| 2026-04-23 19:32 | 39.00985 | -22.87736 | 33776 ft | 542 kts | 82° |
| 2026-04-23 19:32 | 39.01025 | -22.82916 | 33897 ft | 541 kts | 82° |
| 2026-04-23 19:33 | 39.01066 | -22.78109 | 34019 ft | 541 kts | 82° |
| 2026-04-23 19:33 | 39.01104 | -22.73284 | 34136 ft | 540 kts | 82° |
| 2026-04-23 19:33 | 39.01171 | -22.63676 | 34344 ft | 539 kts | 82° |
| 2026-04-23 19:34 | 39.01206 | -22.58902 | 34450 ft | 538 kts | 82° |
| 2026-04-23 19:34 | 39.01236 | -22.54134 | 34555 ft | 538 kts | 83° |
| 2026-04-23 19:34 | 39.01289 | -22.44543 | 34777 ft | 536 kts | 83° |
| 2026-04-23 19:35 | 39.01311 | -22.39745 | 34862 ft | 536 kts | 83° |
| 2026-04-23 19:35 | 39.01353 | -22.30165 | 34848 ft | 540 kts | 84° |
| 2026-04-23 19:36 | 39.01387 | -22.20517 | 34866 ft | 542 kts | 84° |
| 2026-04-23 19:36 | 39.01414 | -22.10880 | 34861 ft | 544 kts | 84° |
| 2026-04-23 19:37 | 39.01432 | -22.01166 | 34855 ft | 545 kts | 84° |
| 2026-04-23 19:37 | 39.01442 | -21.91452 | 34862 ft | 545 kts | 84° |
| 2026-04-23 19:38 | 39.01446 | -21.81736 | 34863 ft | 546 kts | 84° |
| 2026-04-23 19:38 | 39.01437 | -21.72080 | 34863 ft | 545 kts | 84° |
| 2026-04-23 19:39 | 39.01426 | -21.62311 | 34864 ft | 546 kts | 84° |
| 2026-04-23 19:39 | 39.01404 | -21.52657 | 34875 ft | 545 kts | 84° |
| 2026-04-23 19:40 | 39.01373 | -21.42928 | 34878 ft | 545 kts | 84° |
| 2026-04-23 19:40 | 39.01334 | -21.33219 | 34868 ft | 544 kts | 85° |
| 2026-04-23 19:41 | 39.01290 | -21.23546 | 34873 ft | 544 kts | 85° |
| 2026-04-23 19:41 | 39.01236 | -21.13860 | 34877 ft | 543 kts | 85° |
| 2026-04-23 19:42 | 39.01171 | -21.04203 | 34869 ft | 543 kts | 85° |
| 2026-04-23 19:42 | 39.01103 | -20.94504 | 34862 ft | 543 kts | 85° |
| 2026-04-23 19:43 | 39.01025 | -20.84882 | 34877 ft | 542 kts | 85° |
| 2026-04-23 19:43 | 39.00939 | -20.75183 | 34861 ft | 542 kts | 85° |
| 2026-04-23 19:44 | 39.00845 | -20.65562 | 34876 ft | 541 kts | 85° |
| 2026-04-23 19:44 | 39.00745 | -20.55950 | 34881 ft | 540 kts | 85° |
| 2026-04-23 19:45 | 39.00635 | -20.46317 | 34875 ft | 540 kts | 85° |
| 2026-04-23 19:45 | 39.00518 | -20.36700 | 34892 ft | 540 kts | 85° |
| 2026-04-23 19:46 | 39.00394 | -20.27098 | 34886 ft | 539 kts | 86° |
| 2026-04-23 19:46 | 39.00260 | -20.17488 | 34895 ft | 538 kts | 86° |
| 2026-04-23 19:47 | 39.00145 | -20.09501 | 34897 ft | 538 kts | 86° |
| 2026-04-23 19:47 | 39.00009 | -19.98364 | 34888 ft | 535 kts | 83° |
| 2026-04-23 19:48 | 39.00229 | -19.88885 | 34894 ft | 534 kts | 83° |
| 2026-04-23 19:48 | 39.00421 | -19.79408 | 34899 ft | 533 kts | 83° |
| 2026-04-23 19:49 | 39.00606 | -19.69869 | 34899 ft | 533 kts | 83° |
| 2026-04-23 19:49 | 39.00778 | -19.60420 | 34894 ft | 533 kts | 83° |
| 2026-04-23 19:50 | 39.00945 | -19.50877 | 34892 ft | 533 kts | 83° |
| 2026-04-23 19:50 | 39.01104 | -19.41393 | 34895 ft | 533 kts | 83° |
| 2026-04-23 19:51 | 39.01256 | -19.31938 | 34897 ft | 532 kts | 84° |
| 2026-04-23 19:51 | 39.01400 | -19.22468 | 34890 ft | 532 kts | 84° |
| 2026-04-23 19:52 | 39.01512 | -19.14599 | 34909 ft | 532 kts | 84° |
| 2026-04-23 19:52 | 39.01664 | -19.03523 | 35031 ft | 532 kts | 84° |
| 2026-04-23 19:52 | 39.01723 | -18.98792 | 34884 ft | 535 kts | 84° |
| 2026-04-23 19:53 | 39.01783 | -18.94038 | 34926 ft | 532 kts | 84° |
| 2026-04-23 19:53 | 39.01897 | -18.84586 | 34920 ft | 532 kts | 84° |
| 2026-04-23 19:54 | 39.02002 | -18.75127 | 34927 ft | 531 kts | 84° |
| 2026-04-23 19:54 | 39.02100 | -18.65631 | 34924 ft | 531 kts | 85° |
| 2026-04-23 19:55 | 39.02188 | -18.56202 | 34920 ft | 531 kts | 85° |
| 2026-04-23 19:55 | 39.02270 | -18.46754 | 34927 ft | 531 kts | 85° |
| 2026-04-23 19:56 | 39.02344 | -18.37300 | 34930 ft | 530 kts | 86° |
| 2026-04-23 19:56 | 39.02412 | -18.27842 | 34918 ft | 530 kts | 87° |
| 2026-04-23 19:57 | 39.02470 | -18.18364 | 34916 ft | 530 kts | 87° |
| 2026-04-23 19:57 | 39.02513 | -18.10521 | 34922 ft | 529 kts | 87° |
| 2026-04-23 19:58 | 39.02565 | -17.99563 | 34922 ft | 528 kts | 88° |
| 2026-04-23 19:58 | 39.02600 | -17.90115 | 34929 ft | 528 kts | 88° |
| 2026-04-23 19:59 | 39.02629 | -17.80698 | 34923 ft | 528 kts | 88° |
| 2026-04-23 19:59 | 39.02649 | -17.71295 | 34920 ft | 528 kts | 88° |
| 2026-04-23 20:00 | 39.02663 | -17.61918 | 34932 ft | 527 kts | 88° |
| 2026-04-23 20:00 | 39.02668 | -17.52478 | 34933 ft | 527 kts | 88° |
| 2026-04-23 20:01 | 39.02667 | -17.43113 | 34939 ft | 526 kts | 88° |
| 2026-04-23 20:01 | 39.02658 | -17.33744 | 34938 ft | 525 kts | 89° |
| 2026-04-23 20:02 | 39.02642 | -17.24414 | 34943 ft | 524 kts | 89° |
| 2026-04-23 20:02 | 39.02617 | -17.15125 | 34941 ft | 523 kts | 89° |
| 2026-04-23 20:03 | 39.02585 | -17.05804 | 34938 ft | 522 kts | 89° |
| 2026-04-23 20:03 | 39.02547 | -16.96497 | 34951 ft | 522 kts | 90° |
| 2026-04-23 20:04 | 39.02501 | -16.87178 | 34950 ft | 521 kts | 90° |
| 2026-04-23 20:04 | 39.02448 | -16.77941 | 34958 ft | 521 kts | 90° |
| 2026-04-23 20:05 | 39.02396 | -16.70164 | 34958 ft | 520 kts | 90° |
| 2026-04-23 20:05 | 39.02319 | -16.59423 | 34963 ft | 519 kts | 90° |
| 2026-04-23 20:06 | 39.02243 | -16.50120 | 34965 ft | 518 kts | 90° |
| 2026-04-23 20:06 | 39.02161 | -16.40930 | 34965 ft | 518 kts | 90° |
| 2026-04-23 20:07 | 39.02072 | -16.31680 | 34958 ft | 518 kts | 91° |
| 2026-04-23 20:07 | 39.01975 | -16.22495 | 34967 ft | 517 kts | 92° |
| 2026-04-23 20:08 | 39.01871 | -16.13268 | 34963 ft | 517 kts | 92° |
| 2026-04-23 20:08 | 39.01760 | -16.04104 | 34970 ft | 514 kts | 92° |
| 2026-04-23 20:09 | 39.01643 | -15.94966 | 34962 ft | 513 kts | 92° |
| 2026-04-23 20:09 | 39.01517 | -15.85798 | 34963 ft | 513 kts | 92° |
| 2026-04-23 20:10 | 39.01408 | -15.78177 | 34959 ft | 513 kts | 92° |
| 2026-04-23 20:10 | 39.01247 | -15.67513 | 34963 ft | 513 kts | 92° |
| 2026-04-23 20:11 | 39.01102 | -15.58386 | 34959 ft | 513 kts | 93° |
| 2026-04-23 20:11 | 39.00949 | -15.49277 | 34966 ft | 512 kts | 93° |
| 2026-04-23 20:12 | 39.00789 | -15.40167 | 34967 ft | 512 kts | 93° |
| 2026-04-23 20:12 | 39.00622 | -15.31029 | 34962 ft | 512 kts | 94° |
| 2026-04-23 20:13 | 39.00447 | -15.21905 | 34981 ft | 511 kts | 94° |
| 2026-04-23 20:13 | 39.00266 | -15.12814 | 34984 ft | 511 kts | 94° |
| 2026-04-23 20:14 | 39.00079 | -15.03723 | 34976 ft | 511 kts | 94° |
| 2026-04-23 20:14 | 39.00003 | -14.94664 | 34987 ft | 510 kts | 92° |
| 2026-04-23 20:15 | 39.00004 | -14.85550 | 34979 ft | 510 kts | 92° |
| 2026-04-23 20:15 | 38.99998 | -14.76491 | 34989 ft | 507 kts | 92° |
| 2026-04-23 20:16 | 38.99985 | -14.67519 | 34994 ft | 507 kts | 92° |
| 2026-04-23 20:16 | 38.99964 | -14.58479 | 34985 ft | 507 kts | 92° |
| 2026-04-23 20:17 | 38.99938 | -14.49460 | 34996 ft | 507 kts | 92° |
| 2026-04-23 20:17 | 38.99904 | -14.40395 | 34987 ft | 505 kts | 93° |
| 2026-04-23 20:18 | 38.99863 | -14.31421 | 34973 ft | 503 kts | 93° |
| 2026-04-23 20:18 | 38.99815 | -14.22491 | 34981 ft | 503 kts | 94° |
| 2026-04-23 20:19 | 38.99760 | -14.13516 | 34993 ft | 503 kts | 94° |
| 2026-04-23 20:19 | 38.99699 | -14.04584 | 34983 ft | 503 kts | 94° |
| 2026-04-23 20:20 | 38.99631 | -13.95607 | 35004 ft | 502 kts | 94° |
| 2026-04-23 20:20 | 38.99557 | -13.86670 | 34805 ft | 497 kts | 94° |
| 2026-04-23 20:20 | 38.99519 | -13.82357 | 34610 ft | 485 kts | 94° |
| 2026-04-23 20:21 | 38.99479 | -13.78049 | 34403 ft | 476 kts | 94° |
| 2026-04-23 20:21 | 38.99438 | -13.73818 | 34176 ft | 472 kts | 94° |
| 2026-04-23 20:21 | 38.99396 | -13.69672 | 33959 ft | 471 kts | 94° |
| 2026-04-23 20:21 | 38.99352 | -13.65484 | 33721 ft | 470 kts | 94° |
| 2026-04-23 20:22 | 38.99306 | -13.61265 | 33492 ft | 469 kts | 94° |
| 2026-04-23 20:22 | 38.99260 | -13.57106 | 33257 ft | 467 kts | 94° |
| 2026-04-23 20:22 | 38.99213 | -13.52978 | 33024 ft | 464 kts | 94° |
| 2026-04-23 20:22 | 38.99164 | -13.48874 | 32793 ft | 462 kts | 94° |
| 2026-04-23 20:23 | 38.99114 | -13.44760 | 32557 ft | 460 kts | 94° |
| 2026-04-23 20:23 | 38.99063 | -13.40672 | 32324 ft | 459 kts | 95° |
| 2026-04-23 20:23 | 38.99010 | -13.36617 | 32089 ft | 457 kts | 94° |
| 2026-04-23 20:23 | 38.98956 | -13.32502 | 31848 ft | 456 kts | 95° |
| 2026-04-23 20:24 | 38.98902 | -13.28483 | 31612 ft | 454 kts | 95° |
| 2026-04-23 20:24 | 38.98846 | -13.24462 | 31370 ft | 453 kts | 95° |
| 2026-04-23 20:24 | 38.98788 | -13.20423 | 31129 ft | 452 kts | 95° |
| 2026-04-23 20:24 | 38.98730 | -13.16408 | 30887 ft | 451 kts | 95° |
| 2026-04-23 20:25 | 38.98670 | -13.12384 | 30641 ft | 449 kts | 95° |
| 2026-04-23 20:25 | 38.98608 | -13.08397 | 30375 ft | 448 kts | 95° |
| 2026-04-23 20:25 | 38.98547 | -13.04421 | 30107 ft | 446 kts | 95° |
| 2026-04-23 20:25 | 38.98483 | -13.00444 | 29834 ft | 444 kts | 95° |
| 2026-04-23 20:26 | 38.98419 | -12.96497 | 29562 ft | 442 kts | 95° |
| 2026-04-23 20:26 | 38.98353 | -12.92594 | 29299 ft | 441 kts | 95° |
| 2026-04-23 20:26 | 38.98286 | -12.88666 | 29026 ft | 438 kts | 95° |
| 2026-04-23 20:26 | 38.98220 | -12.84756 | 28751 ft | 437 kts | 95° |
| 2026-04-23 20:27 | 38.98151 | -12.80922 | 28491 ft | 434 kts | 95° |
| 2026-04-23 20:27 | 38.98083 | -12.77062 | 28215 ft | 433 kts | 95° |
| 2026-04-23 20:27 | 38.98012 | -12.73199 | 27954 ft | 432 kts | 95° |
| 2026-04-23 20:27 | 38.97940 | -12.69373 | 27686 ft | 432 kts | 94° |
| 2026-04-23 20:28 | 38.97868 | -12.65539 | 27424 ft | 430 kts | 94° |
| 2026-04-23 20:28 | 38.97794 | -12.61673 | 27154 ft | 428 kts | 94° |
| 2026-04-23 20:28 | 38.97720 | -12.57920 | 26894 ft | 426 kts | 94° |
| 2026-04-23 20:28 | 38.97644 | -12.54114 | 26631 ft | 423 kts | 94° |
| 2026-04-23 20:29 | 38.97568 | -12.50339 | 26364 ft | 422 kts | 94° |
| 2026-04-23 20:29 | 38.97492 | -12.46587 | 26102 ft | 421 kts | 94° |
| 2026-04-23 20:29 | 38.97413 | -12.42873 | 25847 ft | 419 kts | 94° |
| 2026-04-23 20:29 | 38.97334 | -12.39138 | 25586 ft | 418 kts | 94° |
| 2026-04-23 20:30 | 38.97255 | -12.35433 | 25328 ft | 416 kts | 94° |
| 2026-04-23 20:30 | 38.97092 | -12.28065 | 24799 ft | 413 kts | 95° |
| 2026-04-23 20:30 | 38.97010 | -12.24433 | 24540 ft | 410 kts | 95° |
| 2026-04-23 20:31 | 38.96927 | -12.20752 | 24273 ft | 409 kts | 94° |
| 2026-04-23 20:31 | 38.96844 | -12.17157 | 24015 ft | 407 kts | 94° |
| 2026-04-23 20:31 | 38.96759 | -12.13532 | 23754 ft | 407 kts | 94° |
| 2026-04-23 20:31 | 38.96673 | -12.09906 | 23493 ft | 406 kts | 94° |
| 2026-04-23 20:32 | 38.96586 | -12.06260 | 23227 ft | 406 kts | 95° |
| 2026-04-23 20:32 | 38.96499 | -12.02658 | 22968 ft | 403 kts | 95° |
| 2026-04-23 20:32 | 38.96411 | -11.99107 | 22707 ft | 401 kts | 95° |
| 2026-04-23 20:32 | 38.96323 | -11.95544 | 22446 ft | 400 kts | 95° |
| 2026-04-23 20:33 | 38.96233 | -11.91991 | 22184 ft | 399 kts | 95° |
| 2026-04-23 20:33 | 38.96141 | -11.88430 | 21928 ft | 396 kts | 95° |
| 2026-04-23 20:33 | 38.96052 | -11.84950 | 21677 ft | 395 kts | 95° |
| 2026-04-23 20:33 | 38.95959 | -11.81426 | 21422 ft | 394 kts | 95° |
| 2026-04-23 20:34 | 38.95866 | -11.77919 | 21168 ft | 392 kts | 95° |
| 2026-04-23 20:34 | 38.95773 | -11.74457 | 20914 ft | 390 kts | 95° |
| 2026-04-23 20:34 | 38.95680 | -11.70964 | 20659 ft | 390 kts | 95° |
| 2026-04-23 20:34 | 38.95583 | -11.67491 | 20410 ft | 388 kts | 95° |
| 2026-04-23 20:35 | 38.95490 | -11.64068 | 20158 ft | 387 kts | 95° |
| 2026-04-23 20:35 | 38.95394 | -11.60637 | 19908 ft | 385 kts | 95° |
| 2026-04-23 20:35 | 38.95298 | -11.57208 | 19657 ft | 384 kts | 95° |
| 2026-04-23 20:35 | 38.95201 | -11.53813 | 19410 ft | 383 kts | 95° |
| 2026-04-23 20:36 | 38.95102 | -11.50385 | 19158 ft | 382 kts | 95° |
| 2026-04-23 20:36 | 38.95005 | -11.47026 | 18915 ft | 381 kts | 95° |
| 2026-04-23 20:36 | 38.94904 | -11.43615 | 18664 ft | 379 kts | 95° |
| 2026-04-23 20:36 | 38.94803 | -11.40239 | 18416 ft | 378 kts | 95° |
| 2026-04-23 20:37 | 38.94702 | -11.36879 | 18170 ft | 376 kts | 95° |
| 2026-04-23 20:37 | 38.94602 | -11.33546 | 17925 ft | 375 kts | 95° |
| 2026-04-23 20:37 | 38.94500 | -11.30196 | 17674 ft | 374 kts | 95° |
| 2026-04-23 20:37 | 38.94397 | -11.26891 | 17429 ft | 372 kts | 95° |
| 2026-04-23 20:38 | 38.94295 | -11.23591 | 17180 ft | 371 kts | 95° |
| 2026-04-23 20:38 | 38.94191 | -11.20300 | 16934 ft | 368 kts | 95° |
| 2026-04-23 20:38 | 38.94088 | -11.17027 | 16685 ft | 367 kts | 95° |
| 2026-04-23 20:38 | 38.94030 | -11.13771 | 16426 ft | 367 kts | 88° |
| 2026-04-23 20:39 | 38.94406 | -11.10536 | 16185 ft | 367 kts | 83° |
| 2026-04-23 20:39 | 38.94829 | -11.07309 | 15940 ft | 365 kts | 82° |
| 2026-04-23 20:39 | 38.95260 | -11.04119 | 15695 ft | 363 kts | 82° |
| 2026-04-23 20:39 | 38.95697 | -11.00927 | 15452 ft | 362 kts | 82° |
| 2026-04-23 20:40 | 38.96127 | -10.97790 | 15159 ft | 361 kts | 82° |
| 2026-04-23 20:40 | 38.96557 | -10.94645 | 14906 ft | 358 kts | 82° |
| 2026-04-23 20:40 | 38.96990 | -10.91487 | 14658 ft | 357 kts | 82° |
| 2026-04-23 20:40 | 38.97420 | -10.88340 | 14417 ft | 357 kts | 82° |
| 2026-04-23 20:41 | 38.97848 | -10.85205 | 14167 ft | 356 kts | 81° |
| 2026-04-23 20:41 | 38.98269 | -10.82118 | 13925 ft | 354 kts | 81° |
| 2026-04-23 20:41 | 38.98689 | -10.79025 | 13680 ft | 352 kts | 81° |
| 2026-04-23 20:41 | 38.99108 | -10.75934 | 13437 ft | 350 kts | 81° |
| 2026-04-23 20:42 | 38.99526 | -10.72860 | 13195 ft | 350 kts | 81° |
| 2026-04-23 20:42 | 38.99942 | -10.69775 | 12955 ft | 348 kts | 81° |
| 2026-04-23 20:42 | 39.00354 | -10.66724 | 12709 ft | 346 kts | 81° |
| 2026-04-23 20:42 | 39.00759 | -10.63709 | 12467 ft | 344 kts | 81° |
| 2026-04-23 20:43 | 39.01163 | -10.60702 | 12225 ft | 344 kts | 81° |
| 2026-04-23 20:43 | 39.01571 | -10.57656 | 11977 ft | 341 kts | 81° |
| 2026-04-23 20:43 | 39.01970 | -10.54674 | 11737 ft | 340 kts | 81° |
| 2026-04-23 20:43 | 39.02370 | -10.51671 | 11492 ft | 339 kts | 81° |
| 2026-04-23 20:44 | 39.02766 | -10.48704 | 11247 ft | 339 kts | 81° |
| 2026-04-23 20:44 | 39.03163 | -10.45714 | 11003 ft | 338 kts | 81° |
| 2026-04-23 20:44 | 39.03556 | -10.42752 | 10758 ft | 337 kts | 81° |
| 2026-04-23 20:44 | 39.03945 | -10.39804 | 10514 ft | 335 kts | 81° |
| 2026-04-23 20:45 | 39.04333 | -10.36876 | 10271 ft | 335 kts | 81° |
| 2026-04-23 20:45 | 39.04721 | -10.33934 | 10027 ft | 333 kts | 81° |
| 2026-04-23 20:45 | 39.05106 | -10.31011 | 9780 ft | 331 kts | 81° |
| 2026-04-23 20:45 | 39.05490 | -10.28077 | 9531 ft | 329 kts | 81° |
| 2026-04-23 20:46 | 39.05866 | -10.25215 | 9278 ft | 323 kts | 81° |
| 2026-04-23 20:46 | 39.06234 | -10.22402 | 9020 ft | 317 kts | 81° |
| 2026-04-23 20:46 | 39.06594 | -10.19645 | 8760 ft | 312 kts | 81° |
| 2026-04-23 20:46 | 39.06949 | -10.16921 | 8501 ft | 306 kts | 81° |
| 2026-04-23 20:47 | 39.07295 | -10.14257 | 8246 ft | 301 kts | 81° |
| 2026-04-23 20:47 | 39.07637 | -10.11622 | 7990 ft | 297 kts | 80° |
| 2026-04-23 20:47 | 39.07976 | -10.09003 | 7737 ft | 293 kts | 80° |
| 2026-04-23 20:47 | 39.08308 | -10.06442 | 7483 ft | 289 kts | 80° |
| 2026-04-23 20:48 | 39.08630 | -10.03936 | 7229 ft | 286 kts | 80° |
| 2026-04-23 20:48 | 39.08955 | -10.01421 | 6971 ft | 282 kts | 79° |
| 2026-04-23 20:48 | 39.09272 | -9.98957 | 6719 ft | 279 kts | 79° |
| 2026-04-23 20:48 | 39.09588 | -9.96497 | 6466 ft | 276 kts | 79° |
| 2026-04-23 20:49 | 39.09896 | -9.94092 | 6215 ft | 274 kts | 79° |
| 2026-04-23 20:49 | 39.10207 | -9.91680 | 5961 ft | 271 kts | 79° |
| 2026-04-23 20:49 | 39.10511 | -9.89304 | 5714 ft | 269 kts | 79° |
| 2026-04-23 20:49 | 39.10814 | -9.86923 | 5461 ft | 267 kts | 80° |
| 2026-04-23 20:50 | 39.11116 | -9.84557 | 5207 ft | 266 kts | 79° |
| 2026-04-23 20:50 | 39.11412 | -9.82225 | 4958 ft | 264 kts | 79° |
| 2026-04-23 20:50 | 39.11701 | -9.79937 | 4709 ft | 263 kts | 79° |
| 2026-04-23 20:50 | 39.11996 | -9.77617 | 4460 ft | 262 kts | 79° |
| 2026-04-23 20:51 | 39.12287 | -9.75320 | 4213 ft | 261 kts | 79° |
| 2026-04-23 20:51 | 39.12576 | -9.73027 | 4020 ft | 258 kts | 79° |
| 2026-04-23 20:51 | 39.12866 | -9.70733 | 4041 ft | 258 kts | 79° |
| 2026-04-23 20:51 | 39.13152 | -9.68455 | 4031 ft | 260 kts | 79° |
| 2026-04-23 20:52 | 39.13439 | -9.66179 | 4030 ft | 260 kts | 79° |
| 2026-04-23 20:52 | 39.13731 | -9.63861 | 4029 ft | 260 kts | 79° |
| 2026-04-23 20:52 | 39.14014 | -9.61602 | 4035 ft | 260 kts | 79° |
| 2026-04-23 20:52 | 39.14302 | -9.59300 | 4028 ft | 260 kts | 80° |
| 2026-04-23 20:53 | 39.14586 | -9.57024 | 4027 ft | 260 kts | 80° |
| 2026-04-23 20:53 | 39.14873 | -9.54716 | 4030 ft | 260 kts | 79° |
| 2026-04-23 20:53 | 39.15156 | -9.52444 | 4030 ft | 260 kts | 79° |
| 2026-04-23 20:53 | 39.15444 | -9.50127 | 4026 ft | 259 kts | 80° |
| 2026-04-23 20:54 | 39.15725 | -9.47853 | 4033 ft | 260 kts | 80° |
| 2026-04-23 20:54 | 39.16011 | -9.45545 | 4030 ft | 260 kts | 80° |
| 2026-04-23 20:54 | 39.16291 | -9.43284 | 3979 ft | 260 kts | 79° |
| 2026-04-23 20:54 | 39.16576 | -9.40968 | 3971 ft | 258 kts | 79° |
| 2026-04-23 20:55 | 39.16858 | -9.38687 | 3981 ft | 259 kts | 80° |
| 2026-04-23 20:55 | 39.17137 | -9.36416 | 3972 ft | 260 kts | 80° |
| 2026-04-23 20:55 | 39.17421 | -9.34107 | 3972 ft | 259 kts | 81° |
| 2026-04-23 20:55 | 39.17702 | -9.31818 | 3974 ft | 261 kts | 80° |
| 2026-04-23 20:56 | 39.17985 | -9.29507 | 3975 ft | 259 kts | 81° |
| 2026-04-23 20:56 | 39.18264 | -9.27220 | 3975 ft | 259 kts | 81° |
| 2026-04-23 20:56 | 39.18544 | -9.24930 | 3967 ft | 259 kts | 81° |
| 2026-04-23 20:56 | 39.18824 | -9.22626 | 3973 ft | 260 kts | 81° |
| 2026-04-23 20:57 | 39.19102 | -9.20341 | 3971 ft | 259 kts | 81° |
| 2026-04-23 20:57 | 39.19381 | -9.18040 | 3974 ft | 260 kts | 81° |
| 2026-04-23 20:57 | 39.19666 | -9.15751 | 3969 ft | 259 kts | 77° |
| 2026-04-23 20:57 | 39.20089 | -9.13492 | 3975 ft | 259 kts | 81° |
| 2026-04-23 20:58 | 39.20370 | -9.11225 | 3984 ft | 258 kts | 79° |
| 2026-04-23 20:58 | 39.20701 | -9.08959 | 3968 ft | 257 kts | 78° |
| 2026-04-23 20:58 | 39.21041 | -9.06680 | 3972 ft | 258 kts | 78° |
| 2026-04-23 20:58 | 39.21376 | -9.04429 | 3970 ft | 258 kts | 80° |
| 2026-04-23 20:59 | 39.21284 | -9.02122 | 3979 ft | 258 kts | 102° |
| 2026-04-23 20:59 | 39.20906 | -8.99847 | 3986 ft | 259 kts | 101° |
| 2026-04-23 20:59 | 39.20548 | -8.97588 | 3961 ft | 259 kts | 101° |
| 2026-04-23 20:59 | 39.20183 | -8.95297 | 3974 ft | 259 kts | 101° |
| 2026-04-23 21:00 | 39.19819 | -8.93017 | 3972 ft | 260 kts | 101° |
| 2026-04-23 21:00 | 39.19344 | -8.90797 | 3968 ft | 259 kts | 110° |
| 2026-04-23 21:00 | 39.18367 | -8.88866 | 3972 ft | 258 kts | 139° |
| 2026-04-23 21:00 | 39.16781 | -8.87792 | 3991 ft | 258 kts | 169° |
| 2026-04-23 21:01 | 39.15009 | -8.87850 | 3977 ft | 256 kts | 198° |
| 2026-04-23 21:01 | 39.13442 | -8.88923 | 3999 ft | 255 kts | 211° |
| 2026-04-23 21:01 | 39.11908 | -8.90067 | 3986 ft | 251 kts | 213° |
| 2026-04-23 21:01 | 39.10498 | -8.91267 | 3950 ft | 233 kts | 215° |
| 2026-04-23 21:02 | 39.09192 | -8.92417 | 3972 ft | 224 kts | 216° |
| 2026-04-23 21:02 | 39.07912 | -8.93561 | 3984 ft | 223 kts | 216° |
| 2026-04-23 21:02 | 39.06631 | -8.94707 | 3990 ft | 223 kts | 216° |
| 2026-04-23 21:02 | 39.05358 | -8.95849 | 3990 ft | 223 kts | 216° |
| 2026-04-23 21:03 | 39.04090 | -8.96987 | 3984 ft | 222 kts | 216° |
| 2026-04-23 21:03 | 39.02811 | -8.98135 | 3989 ft | 223 kts | 216° |
| 2026-04-23 21:03 | 39.01543 | -8.99271 | 3982 ft | 223 kts | 216° |
| 2026-04-23 21:03 | 39.00274 | -9.00410 | 3992 ft | 223 kts | 216° |
| 2026-04-23 21:04 | 38.99006 | -9.01545 | 4006 ft | 223 kts | 216° |
| 2026-04-23 21:04 | 38.97718 | -9.02698 | 3976 ft | 223 kts | 216° |
| 2026-04-23 21:04 | 38.96467 | -9.03808 | 3959 ft | 214 kts | 215° |
| 2026-04-23 21:04 | 38.95134 | -9.04672 | 3648 ft | 213 kts | 200° |
| 2026-04-23 21:05 | 38.93755 | -9.05308 | 3392 ft | 209 kts | 203° |
| 2026-04-23 21:05 | 38.92436 | -9.05983 | 3163 ft | 201 kts | 204° |
| 2026-04-23 21:05 | 38.91161 | -9.06650 | 2892 ft | 191 kts | 205° |
| 2026-04-23 21:05 | 38.90001 | -9.07263 | 2650 ft | 173 kts | 205° |
| 2026-04-23 21:06 | 38.88932 | -9.07828 | 2429 ft | 160 kts | 206° |
| 2026-04-23 21:06 | 38.87943 | -9.08355 | 2181 ft | 153 kts | 206° |
| 2026-04-23 21:06 | 38.86958 | -9.08882 | 1977 ft | 152 kts | 207° |
| 2026-04-23 21:06 | 38.85978 | -9.09407 | 1784 ft | 153 kts | 206° |
| 2026-04-23 21:07 | 38.84993 | -9.09926 | 1589 ft | 152 kts | 206° |
| 2026-04-23 21:07 | 38.84011 | -9.10437 | 1367 ft | 152 kts | 206° |
| 2026-04-23 21:07 | 38.83039 | -9.10961 | 1161 ft | 150 kts | 206° |
| 2026-04-23 21:07 | 38.82076 | -9.11472 | 962 ft | 150 kts | 206° |
| 2026-04-23 21:08 | 38.81118 | -9.11985 | 760 ft | 150 kts | 206° |
| 2026-04-23 21:08 | 38.80147 | -9.12499 | 562 ft | 149 kts | 205° |
| 2026-04-23 21:08 | 38.79200 | -9.13012 | 377 ft | 148 kts | 206° |
| 2026-04-23 21:08 | 38.78319 | -9.13489 | 366 ft | 113 kts | 203° |
| 2026-04-23 21:09 | 38.77760 | -9.13790 | 365 ft | 63 kts | 203° |
| 2026-04-23 21:09 | 38.77506 | -9.13894 | 360 ft | 35 kts | 185° |
| 2026-04-23 21:09 | 38.77307 | -9.13892 | 352 ft | 20 kts | 178° |
| 2026-04-23 21:09 | 38.77215 | -9.13888 | 350 ft | 15 kts | 178° |
| 2026-04-23 21:10 | 38.77100 | -9.13898 | 349 ft | 16 kts | 179° |
| 2026-04-23 21:10 | 38.76970 | -9.13866 | 347 ft | 21 kts | 168° |
| 2026-04-23 21:10 | 38.76931 | -9.13854 | 346 ft | 1 kts | 148° |
| 2026-04-23 21:10 | 38.76929 | -9.13825 | 346 ft | 5 kts | 85° |
| 2026-04-23 21:11 | 38.76934 | -9.13781 | 346 ft | 4 kts | 79° |
| 2026-04-23 21:11 | 38.76939 | -9.13749 | 346 ft | 1 kts | 78° |
| 2026-04-23 21:11 | 38.76940 | -9.13746 | 346 ft | 0 kts | 78° |